createdAt,value
2023-01-22T00:01:33.319Z,101128.73
2023-01-22T00:04:33.737Z,101131.41
2023-01-22T00:07:33.353Z,101132.98
2023-01-22T00:10:33.335Z,101129.98
2023-01-22T00:13:36.381Z,101130.10
2023-01-22T00:16:39.397Z,101130.39
2023-01-22T00:19:40.928Z,101136.21
2023-01-22T00:22:42.361Z,101140.15
2023-01-22T00:25:44.369Z,101146.39
2023-01-22T00:28:47.395Z,101151.33
2023-01-22T00:31:54.599Z,101158.55
2023-01-22T00:34:58.586Z,101154.62
2023-01-22T00:38:00.446Z,101156.52
2023-01-22T00:41:03.514Z,101162.83
2023-01-22T00:44:04.403Z,101167.48
2023-01-22T00:47:06.387Z,101167.32
2023-01-22T00:50:08.420Z,101167.59
2023-01-22T00:53:10.453Z,101168.52
2023-01-22T00:56:14.507Z,101168.36
2023-01-22T00:59:16.446Z,101171.38
2023-01-22T01:02:17.755Z,101178.01
2023-01-22T04:45:43.075Z,101329.17
2023-01-22T04:48:45.906Z,101333.08
2023-01-22T04:51:47.017Z,101336.09
2023-01-22T04:54:48.071Z,101341.33
2023-01-22T04:57:49.987Z,101338.41
2023-01-22T05:00:50.956Z,101347.27
2023-01-22T05:03:51.895Z,101347.40
2023-01-22T05:06:54.931Z,101352.14
2023-01-22T05:10:00.326Z,101354.14
2023-01-22T05:13:03.143Z,101355.50
2023-01-22T05:16:05.061Z,101355.70
2023-01-22T05:19:05.977Z,101355.72
2023-01-22T05:22:12.925Z,101357.68
2023-01-22T05:25:15.194Z,101358.18
2023-01-22T05:28:14.990Z,101362.63
2023-01-22T05:31:44.166Z,101367.27
2023-01-22T05:34:59.951Z,101373.08
2023-01-22T05:38:02.930Z,101376.09
2023-01-22T05:41:03.994Z,101385.06
2023-01-22T05:44:05.940Z,101386.80
2023-01-22T05:47:08.005Z,101383.34
2023-01-22T05:50:15.016Z,101387.96
2023-01-22T05:53:20.967Z,101399.63
2023-01-22T05:56:22.982Z,101397.44
2023-01-22T05:59:25.018Z,101401.73
2023-01-22T06:02:28.074Z,101400.46
2023-01-22T06:05:30.017Z,101408.59
2023-01-22T06:08:35.040Z,101413.85
2023-01-22T06:11:35.005Z,101408.09
2023-01-22T06:14:37.002Z,101416.06
2023-01-22T06:17:39.982Z,101421.27
2023-01-22T06:20:43.088Z,101422.02
2023-01-22T06:23:43.002Z,101429.25
2023-01-22T06:26:44.234Z,101434.73
2023-01-22T06:29:46.030Z,101450.26
2023-01-22T06:32:46.076Z,101456.46
2023-01-22T06:35:46.042Z,101458.46
2023-01-22T06:38:47.079Z,101462.86
2023-01-22T06:41:57.055Z,101460.70
2023-01-22T06:44:59.101Z,101466.80
2023-01-22T06:48:01.389Z,101469.84
2023-01-22T06:51:02.098Z,101473.58
2023-01-22T06:54:02.080Z,101480.13
2023-01-22T06:57:03.100Z,101480.01
2023-01-22T07:00:03.086Z,101478.98
2023-01-22T07:03:03.079Z,101480.01
2023-01-22T07:06:09.104Z,101479.21
2023-01-22T07:09:10.068Z,101482.75
2023-01-22T07:12:10.102Z,101477.55
2023-01-22T07:15:13.096Z,101482.73
2023-01-22T07:18:15.424Z,101488.66
2023-01-22T07:21:17.131Z,101482.68
2023-01-22T07:24:17.252Z,101486.04
2023-01-22T07:27:18.136Z,101487.88
2023-01-22T07:30:19.410Z,101488.61
2023-01-22T07:33:20.122Z,101488.58
2023-01-22T07:36:21.135Z,101487.75
2023-01-22T07:39:23.201Z,101492.90
2023-01-22T07:42:23.154Z,101493.33
2023-01-22T07:45:27.180Z,101492.16
2023-01-22T07:48:30.165Z,101495.11
2023-01-22T07:51:31.200Z,101498.19
2023-01-22T07:54:34.168Z,101503.50
2023-01-22T07:57:34.193Z,101508.64
2023-01-22T08:00:34.204Z,101504.30
2023-01-22T08:03:34.208Z,101507.05
2023-01-22T08:06:34.196Z,101507.25
2023-01-22T08:09:37.198Z,101505.48
2023-01-22T08:12:38.282Z,101507.09
2023-01-22T08:15:38.289Z,101507.63
2023-01-22T08:18:38.233Z,101508.66
2023-01-22T08:21:39.339Z,101513.89
2023-01-22T08:24:40.216Z,101514.25
2023-01-22T08:27:41.240Z,101525.93
2023-01-22T08:30:48.302Z,101527.98
2023-01-22T08:33:49.257Z,101532.52
2023-01-22T08:36:49.287Z,101526.14
2023-01-22T08:39:50.248Z,101530.27
2023-01-22T08:42:51.811Z,101536.45
2023-01-22T08:45:52.452Z,101543.66
2023-01-22T08:48:54.305Z,101543.71
2023-01-22T08:51:56.295Z,101543.61
2023-01-22T08:55:00.361Z,101539.79
2023-01-22T08:58:08.280Z,101543.56
2023-01-22T09:01:08.314Z,101538.02
2023-01-22T09:04:08.302Z,101542.52
2023-01-22T09:07:10.900Z,101545.83
2023-01-22T09:10:14.334Z,101544.39
2023-01-22T09:13:16.300Z,101540.84
2023-01-22T09:16:17.847Z,101548.70
2023-01-22T09:19:19.335Z,101552.35
2023-01-22T09:22:19.800Z,101549.50
2023-01-22T09:25:24.326Z,101553.41
2023-01-22T09:28:24.358Z,101554.18
2023-01-22T09:31:27.387Z,101563.48
2023-01-22T09:34:27.349Z,101572.20
2023-01-22T09:37:28.323Z,101568.63
2023-01-22T13:22:10.894Z,101649.20
2023-01-22T13:25:11.910Z,101655.09
2023-01-22T13:28:11.864Z,101649.50
2023-01-22T13:31:17.072Z,101649.96
2023-01-22T13:34:16.924Z,101653.80
2023-01-22T13:37:16.939Z,101649.59
2023-01-22T13:40:27.951Z,101647.10
2023-01-22T13:43:29.901Z,101652.00
2023-01-22T13:46:32.016Z,101655.93
2023-01-22T13:49:43.970Z,101657.86
2023-01-22T13:52:44.068Z,101663.20
2023-01-22T13:55:46.919Z,101673.13
2023-01-22T13:58:52.426Z,101676.10
2023-01-22T14:01:53.072Z,101671.88
2023-01-22T14:04:53.958Z,101673.77
2023-01-22T14:07:55.977Z,101684.86
2023-01-22T14:11:09.934Z,101689.65
2023-01-22T14:14:11.951Z,101693.99
2023-01-22T14:17:12.013Z,101697.75
2023-01-22T14:20:13.031Z,101709.21
2023-01-22T14:23:14.044Z,101707.69
2023-01-22T14:26:19.073Z,101709.17
2023-01-22T14:29:19.003Z,101706.87
2023-01-22T14:32:19.980Z,101706.32
2023-01-22T14:35:35.226Z,101708.61
2023-01-22T14:38:35.062Z,101714.39
2023-01-22T14:41:35.979Z,101716.90
2023-01-22T14:44:36.020Z,101724.15
2023-01-22T14:47:41.001Z,101724.05
2023-01-22T14:50:44.599Z,101725.65
2023-01-22T14:53:48.063Z,101727.95
2023-01-22T14:56:55.062Z,101726.12
2023-01-22T14:59:49.100Z,101727.83
2023-01-22T15:02:49.162Z,101730.45
2023-01-22T15:05:51.008Z,101735.42
2023-01-22T15:08:53.055Z,101732.21
2023-01-22T15:11:53.068Z,101734.72
2023-01-22T15:14:54.036Z,101732.21
2023-01-22T15:17:55.061Z,101737.54
2023-01-22T15:20:56.094Z,101733.27
2023-01-22T15:23:57.070Z,101732.48
2023-01-22T15:26:57.036Z,101731.78
2023-01-22T15:29:58.128Z,101737.10
2023-01-22T15:32:59.264Z,101741.86
2023-01-22T15:35:59.154Z,101743.66
2023-01-22T15:38:59.151Z,101747.06
2023-01-22T15:41:59.131Z,101750.98
2023-01-22T15:44:59.112Z,101752.97
2023-01-22T15:48:01.174Z,101755.70
2023-01-22T15:51:01.171Z,101753.86
2023-01-22T15:54:02.146Z,101751.19
2023-01-22T15:57:02.096Z,101758.95
2023-01-22T16:00:02.212Z,101760.20
2023-01-22T16:03:05.121Z,101764.85
2023-01-22T16:06:05.120Z,101762.80
2023-01-22T16:09:06.169Z,101770.81
2023-01-22T16:12:06.162Z,101764.15
2023-01-22T16:15:06.178Z,101769.59
2023-01-22T16:18:07.186Z,101774.88
2023-01-22T16:21:07.190Z,101779.39
2023-01-22T16:24:08.179Z,101780.55
2023-01-22T16:27:08.208Z,101779.74
2023-01-22T16:30:08.163Z,101773.41
2023-01-22T16:33:10.206Z,101773.70
2023-01-22T16:36:14.169Z,101775.36
2023-01-22T16:39:14.218Z,101774.59
2023-01-22T16:42:14.166Z,101775.56
2023-01-22T16:45:14.243Z,101777.62
2023-01-22T16:48:14.346Z,101781.29
2023-01-22T16:51:15.330Z,101780.48
2023-01-22T16:54:15.212Z,101783.14
2023-01-22T16:57:17.285Z,101784.96
2023-01-22T17:00:18.792Z,101793.64
2023-01-22T17:03:22.218Z,101791.67
2023-01-22T17:06:36.216Z,101795.29
2023-01-22T17:09:39.311Z,101794.64
2023-01-22T17:12:39.362Z,101798.20
2023-01-22T17:15:40.276Z,101804.02
2023-01-22T17:18:41.263Z,101806.42
2023-01-22T17:21:41.600Z,101810.16
2023-01-22T17:24:41.550Z,101806.52
2023-01-22T17:27:46.284Z,101811.95
2023-01-22T17:30:51.460Z,101817.20
2023-01-22T17:33:53.551Z,101819.00
2023-01-22T17:37:00.355Z,101822.36
2023-01-22T17:40:02.331Z,101824.71
2023-01-22T17:43:02.262Z,101830.98
2023-01-22T17:46:02.413Z,101831.44
2023-01-22T17:49:03.288Z,101833.30
2023-01-22T17:52:03.339Z,101838.15
2023-01-22T17:55:06.421Z,101839.47
2023-01-22T17:58:09.333Z,101844.23
2023-01-22T18:01:15.436Z,101842.89
2023-01-22T18:04:21.358Z,101843.50
2023-01-22T18:07:24.456Z,101845.83
2023-01-22T18:10:31.398Z,101846.52
2023-01-22T18:13:32.351Z,101849.70
2023-01-22T18:16:33.399Z,101856.71
2023-01-22T18:19:33.398Z,101855.51
2023-01-22T18:22:35.475Z,101855.23
2023-01-22T18:25:39.388Z,101852.85
2023-01-22T18:28:40.452Z,101853.41
2023-01-22T18:31:42.715Z,101858.67
2023-01-22T18:34:44.399Z,101858.21
2023-01-22T18:37:46.383Z,101860.44
2023-01-22T18:40:50.394Z,101862.00
2023-01-22T18:43:53.525Z,101863.98
2023-01-22T18:46:58.726Z,101871.41
2023-01-22T18:49:58.418Z,101872.13
2023-01-22T18:53:01.447Z,101871.01
2023-01-22T18:56:02.481Z,101870.96
2023-01-22T18:59:03.401Z,101870.09
2023-01-22T19:02:04.419Z,101870.92
2023-01-22T19:05:05.400Z,101877.73
2023-01-22T19:08:05.435Z,101881.13
2023-01-22T19:11:09.650Z,101877.02
2023-01-22T19:14:12.660Z,101882.60
2023-01-22T19:17:13.468Z,101880.48
2023-01-22T19:20:17.423Z,101884.20
2023-01-22T19:23:18.470Z,101881.16
2023-01-22T19:26:22.492Z,101884.45
2023-01-22T19:29:32.925Z,101886.48
2023-01-22T19:32:37.458Z,101887.88
2023-01-22T19:35:37.461Z,101893.65
2023-01-22T19:38:37.685Z,101894.42
2023-01-22T19:41:38.560Z,101893.84
2023-01-22T19:44:38.480Z,101897.25
2023-01-22T19:47:38.493Z,101899.92
2023-01-22T19:50:41.354Z,101893.27
2023-01-22T19:53:46.771Z,101889.30
2023-01-22T19:56:49.495Z,101896.51
2023-01-22T19:59:50.516Z,101894.45
2023-01-22T20:02:55.794Z,101892.48
2023-01-22T20:05:58.523Z,101896.79
2023-01-22T20:08:59.526Z,101893.85
2023-01-22T20:12:04.602Z,101889.77
2023-01-22T20:15:04.561Z,101892.44
2023-01-22T20:18:08.517Z,101895.08
2023-01-22T20:21:08.545Z,101894.35
2023-01-22T20:24:11.831Z,101894.70
2023-01-22T20:27:17.689Z,101897.29
2023-01-22T20:30:20.672Z,101895.23
2023-01-22T20:33:20.547Z,101894.26
2023-01-22T20:36:21.645Z,101898.48
2023-01-22T20:39:25.995Z,101894.57
2023-01-22T20:42:26.882Z,101892.93
2023-01-22T20:45:27.761Z,101899.93
2023-01-22T20:48:29.595Z,101904.60
2023-01-22T20:51:38.651Z,101903.19
2023-01-22T20:55:01.387Z,101906.86
2023-01-22T20:58:06.888Z,101904.45
2023-01-22T21:01:09.016Z,101908.52
2023-01-22T21:04:15.289Z,101912.92
2023-01-22T21:07:16.774Z,101905.76
2023-01-22T21:10:20.824Z,101913.73
2023-01-22T21:13:26.441Z,101922.60
2023-01-22T21:16:35.750Z,101924.31
2023-01-22T21:19:38.782Z,101926.55
2023-01-22T21:22:38.630Z,101923.31
2023-01-22T21:25:39.680Z,101929.20
2023-01-22T21:28:41.669Z,101927.36
2023-01-22T21:31:44.005Z,101926.16
2023-01-22T21:34:46.899Z,101930.66
2023-01-22T21:37:48.675Z,101925.77
2023-01-22T21:40:49.722Z,101926.23
2023-01-22T21:44:10.769Z,101924.69
2023-01-22T21:47:11.988Z,101925.16
2023-01-22T21:50:11.694Z,101920.44
2023-01-22T21:53:12.735Z,101920.42
2023-01-22T21:56:13.724Z,101918.81
2023-01-22T21:59:15.342Z,101915.52
2023-01-22T22:02:17.750Z,101916.64
2023-01-22T22:05:19.090Z,101914.60
2023-01-22T22:08:19.731Z,101916.54
2023-01-22T22:11:19.759Z,101919.98
2023-01-22T22:14:27.001Z,101921.24
2023-01-22T22:17:28.761Z,101923.80
2023-01-22T22:20:28.775Z,101927.08
2023-01-22T22:23:29.738Z,101928.00
2023-01-22T22:26:30.755Z,101928.54
2023-01-22T22:29:32.140Z,101928.16
2023-01-22T22:32:37.164Z,101932.31
2023-01-22T22:35:39.892Z,101931.81
2023-01-22T22:38:39.886Z,101928.59
2023-01-22T22:41:46.278Z,101930.54
2023-01-22T22:44:51.216Z,101935.72
2023-01-22T22:47:50.991Z,101931.63
2023-01-22T22:50:52.813Z,101934.16
2023-01-22T22:53:53.935Z,101935.34
2023-01-22T22:56:58.891Z,101936.45
2023-01-22T22:59:58.793Z,101938.21
2023-01-22T23:02:58.841Z,101937.53
2023-01-22T23:05:59.838Z,101944.77
2023-01-22T23:09:06.855Z,101948.75
2023-01-22T23:12:07.009Z,101945.23
2023-01-22T23:15:08.242Z,101939.55
2023-01-22T23:18:07.944Z,101944.73
2023-01-22T23:21:07.893Z,101943.02
2023-01-22T23:24:09.237Z,101948.54
2023-01-22T23:27:09.903Z,101946.80
2023-01-22T23:30:09.867Z,101949.56
2023-01-22T23:33:12.103Z,101950.77
2023-01-22T23:36:18.854Z,101954.98
2023-01-22T23:39:20.857Z,101950.79
2023-01-22T23:42:21.930Z,101948.11
2023-01-22T23:45:25.860Z,101947.82
2023-01-22T23:48:25.885Z,101946.35
2023-01-22T23:51:26.949Z,101951.09
2023-01-22T23:54:28.904Z,101956.09
2023-01-22T23:57:29.943Z,101952.83
